sensor_id;sensor_type;location;lat;lon;timestamp;temperature;humidity
47368;DHT22;34646;47.964;7.982;2022-10-22T00:04:54;19.50;79.10
47368;DHT22;34646;47.964;7.982;2022-10-22T00:10:56;19.50;79.10
47368;DHT22;34646;47.964;7.982;2022-10-22T00:16:57;19.50;79.10
47368;DHT22;34646;47.964;7.982;2022-10-22T00:23:00;19.50;79.00
47368;DHT22;34646;47.964;7.982;2022-10-22T00:29:01;19.50;78.90
47368;DHT22;34646;47.964;7.982;2022-10-22T00:35:02;19.50;79.00
47368;DHT22;34646;47.964;7.982;2022-10-22T00:41:03;19.50;78.90
47368;DHT22;34646;47.964;7.982;2022-10-22T00:47:03;19.50;78.90
47368;DHT22;34646;47.964;7.982;2022-10-22T00:53:09;19.50;78.90
47368;DHT22;34646;47.964;7.982;2022-10-22T00:59:12;19.50;78.80
47368;DHT22;34646;47.964;7.982;2022-10-22T01:05:13;19.50;78.80
47368;DHT22;34646;47.964;7.982;2022-10-22T01:30:24;19.50;78.80
47368;DHT22;34646;47.964;7.982;2022-10-22T01:36:27;19.50;78.70
47368;DHT22;34646;47.964;7.982;2022-10-22T01:42:29;19.50;78.80
47368;DHT22;34646;47.964;7.982;2022-10-22T01:55:08;19.40;78.60
47368;DHT22;34646;47.964;7.982;2022-10-22T02:01:22;19.40;78.60
47368;DHT22;34646;47.964;7.982;2022-10-22T02:07:27;19.40;79.20
47368;DHT22;34646;47.964;7.982;2022-10-22T02:13:50;19.40;78.60
47368;DHT22;34646;47.964;7.982;2022-10-22T02:19:56;19.40;78.60
47368;DHT22;34646;47.964;7.982;2022-10-22T02:26:08;19.40;78.60
47368;DHT22;34646;47.964;7.982;2022-10-22T02:32:15;19.40;78.60
47368;DHT22;34646;47.964;7.982;2022-10-22T02:38:18;19.40;78.60
47368;DHT22;34646;47.964;7.982;2022-10-22T02:44:20;19.40;78.60
47368;DHT22;34646;47.964;7.982;2022-10-22T02:50:21;19.40;78.60
47368;DHT22;34646;47.964;7.982;2022-10-22T02:56:22;19.40;78.50
47368;DHT22;34646;47.964;7.982;2022-10-22T03:02:23;19.40;78.50
47368;DHT22;34646;47.964;7.982;2022-10-22T03:08:24;19.40;78.50
47368;DHT22;34646;47.964;7.982;2022-10-22T03:14:24;19.40;78.50
47368;DHT22;34646;47.964;7.982;2022-10-22T03:20:25;19.30;78.50
47368;DHT22;34646;47.964;7.982;2022-10-22T03:26:26;19.40;78.50
47368;DHT22;34646;47.964;7.982;2022-10-22T03:32:26;19.40;78.40
47368;DHT22;34646;47.964;7.982;2022-10-22T03:38:28;19.40;78.50
47368;DHT22;34646;47.964;7.982;2022-10-22T03:44:29;19.40;78.40
47368;DHT22;34646;47.964;7.982;2022-10-22T03:50:30;19.30;78.90
47368;DHT22;34646;47.964;7.982;2022-10-22T03:56:31;19.30;78.30
47368;DHT22;34646;47.964;7.982;2022-10-22T04:02:31;19.40;78.40
47368;DHT22;34646;47.964;7.982;2022-10-22T04:08:32;19.30;78.30
47368;DHT22;34646;47.964;7.982;2022-10-22T04:14:33;19.30;78.30
47368;DHT22;34646;47.964;7.982;2022-10-22T04:20:34;19.30;78.30
47368;DHT22;34646;47.964;7.982;2022-10-22T04:26:35;19.30;78.30
47368;DHT22;34646;47.964;7.982;2022-10-22T04:32:35;19.30;78.30
47368;DHT22;34646;47.964;7.982;2022-10-22T04:38:38;19.30;78.20
47368;DHT22;34646;47.964;7.982;2022-10-22T04:44:39;19.30;78.20
47368;DHT22;34646;47.964;7.982;2022-10-22T04:50:40;19.30;78.30
47368;DHT22;34646;47.964;7.982;2022-10-22T04:56:43;19.30;78.20
47368;DHT22;34646;47.964;7.982;2022-10-22T05:02:48;19.30;78.20
47368;DHT22;34646;47.964;7.982;2022-10-22T05:08:57;19.30;78.20
47368;DHT22;34646;47.964;7.982;2022-10-22T05:14:58;19.20;78.10
47368;DHT22;34646;47.964;7.982;2022-10-22T05:20:59;19.20;78.10
47368;DHT22;34646;47.964;7.982;2022-10-22T05:26:59;19.20;78.10
47368;DHT22;34646;47.964;7.982;2022-10-22T05:33:00;19.30;78.20
47368;DHT22;34646;47.964;7.982;2022-10-22T05:39:01;19.30;78.20
47368;DHT22;34646;47.964;7.982;2022-10-22T05:45:01;19.20;78.10
47368;DHT22;34646;47.964;7.982;2022-10-22T05:51:07;19.20;78.10
47368;DHT22;34646;47.964;7.982;2022-10-22T05:57:08;19.20;78.10
47368;DHT22;34646;47.964;7.982;2022-10-22T06:03:09;19.20;78.10
47368;DHT22;34646;47.964;7.982;2022-10-22T06:15:19;19.20;78.00
47368;DHT22;34646;47.964;7.982;2022-10-22T06:21:19;19.20;78.10
47368;DHT22;34646;47.964;7.982;2022-10-22T06:27:20;19.20;78.10
47368;DHT22;34646;47.964;7.982;2022-10-22T06:33:21;19.20;78.00
47368;DHT22;34646;47.964;7.982;2022-10-22T06:39:21;19.20;78.00
47368;DHT22;34646;47.964;7.982;2022-10-22T06:45:22;19.20;78.10
47368;DHT22;34646;47.964;7.982;2022-10-22T06:51:23;19.20;78.10
47368;DHT22;34646;47.964;7.982;2022-10-22T06:57:24;19.20;78.10
47368;DHT22;34646;47.964;7.982;2022-10-22T07:03:25;18.60;74.60
47368;DHT22;34646;47.964;7.982;2022-10-22T07:09:25;18.40;76.00
47368;DHT22;34646;47.964;7.982;2022-10-22T07:15:26;18.70;77.40
47368;DHT22;34646;47.964;7.982;2022-10-22T07:21:27;18.80;77.10
47368;DHT22;34646;47.964;7.982;2022-10-22T07:27:28;18.90;77.10
47368;DHT22;34646;47.964;7.982;2022-10-22T07:33:29;18.90;77.00
47368;DHT22;34646;47.964;7.982;2022-10-22T07:39:29;18.90;76.90
47368;DHT22;34646;47.964;7.982;2022-10-22T07:45:30;19.00;77.00
47368;DHT22;34646;47.964;7.982;2022-10-22T07:51:31;19.00;77.00
47368;DHT22;34646;47.964;7.982;2022-10-22T07:57:31;19.00;77.10
47368;DHT22;34646;47.964;7.982;2022-10-22T08:03:32;19.00;77.10
47368;DHT22;34646;47.964;7.982;2022-10-22T08:09:33;19.00;77.10
47368;DHT22;34646;47.964;7.982;2022-10-22T08:15:34;19.00;77.20
47368;DHT22;34646;47.964;7.982;2022-10-22T08:21:35;19.10;77.20
47368;DHT22;34646;47.964;7.982;2022-10-22T08:27:36;19.10;77.20
47368;DHT22;34646;47.964;7.982;2022-10-22T08:33:37;19.10;77.20
47368;DHT22;34646;47.964;7.982;2022-10-22T08:39:38;19.10;77.30
47368;DHT22;34646;47.964;7.982;2022-10-22T08:52:15;19.10;77.50
47368;DHT22;34646;47.964;7.982;2022-10-22T08:58:22;19.10;77.50
47368;DHT22;34646;47.964;7.982;2022-10-22T09:04:29;19.10;77.50
47368;DHT22;34646;47.964;7.982;2022-10-22T09:10:35;19.10;77.60
47368;DHT22;34646;47.964;7.982;2022-10-22T09:29:21;19.20;77.60
47368;DHT22;34646;47.964;7.982;2022-10-22T09:35:23;19.10;77.60
47368;DHT22;34646;47.964;7.982;2022-10-22T09:41:27;19.20;77.50
47368;DHT22;34646;47.964;7.982;2022-10-22T09:47:38;19.20;77.70
47368;DHT22;34646;47.964;7.982;2022-10-22T09:53:45;19.20;77.70
47368;DHT22;34646;47.964;7.982;2022-10-22T09:59:48;19.20;77.70
47368;DHT22;34646;47.964;7.982;2022-10-22T10:05:52;19.20;77.70
47368;DHT22;34646;47.964;7.982;2022-10-22T10:18:33;19.20;77.70
47368;DHT22;34646;47.964;7.982;2022-10-22T10:24:46;19.20;77.80
47368;DHT22;34646;47.964;7.982;2022-10-22T10:37:29;19.20;77.70
47368;DHT22;34646;47.964;7.982;2022-10-22T10:50:00;19.20;77.70
47368;DHT22;34646;47.964;7.982;2022-10-22T11:09:23;19.30;77.60
47368;DHT22;34646;47.964;7.982;2022-10-22T11:15:28;19.30;77.60
47368;DHT22;34646;47.964;7.982;2022-10-22T11:21:40;19.30;77.50
47368;DHT22;34646;47.964;7.982;2022-10-22T11:28:02;19.30;77.40
47368;DHT22;34646;47.964;7.982;2022-10-22T11:34:29;19.40;77.50
47368;DHT22;34646;47.964;7.982;2022-10-22T11:40:37;19.40;77.40
47368;DHT22;34646;47.964;7.982;2022-10-22T11:46:52;19.40;77.30
47368;DHT22;34646;47.964;7.982;2022-10-22T11:53:01;19.40;77.30
47368;DHT22;34646;47.964;7.982;2022-10-22T11:59:03;19.40;77.30
47368;DHT22;34646;47.964;7.982;2022-10-22T12:11:37;19.50;77.30
47368;DHT22;34646;47.964;7.982;2022-10-22T12:17:38;19.50;77.40
47368;DHT22;34646;47.964;7.982;2022-10-22T12:23:43;19.50;77.50
47368;DHT22;34646;47.964;7.982;2022-10-22T12:29:46;19.50;77.60
47368;DHT22;34646;47.964;7.982;2022-10-22T12:35:47;19.60;78.40
47368;DHT22;34646;47.964;7.982;2022-10-22T12:41:52;19.60;78.10
47368;DHT22;34646;47.964;7.982;2022-10-22T12:47:58;19.70;78.20
47368;DHT22;34646;47.964;7.982;2022-10-22T12:54:07;19.70;78.20
47368;DHT22;34646;47.964;7.982;2022-10-22T13:00:38;19.70;78.00
47368;DHT22;34646;47.964;7.982;2022-10-22T13:06:43;19.80;77.90
47368;DHT22;34646;47.964;7.982;2022-10-22T13:12:49;19.80;77.70
47368;DHT22;34646;47.964;7.982;2022-10-22T13:18:51;19.80;78.40
47368;DHT22;34646;47.964;7.982;2022-10-22T13:24:53;19.90;77.20
47368;DHT22;34646;47.964;7.982;2022-10-22T13:31:00;20.00;74.60
47368;DHT22;34646;47.964;7.982;2022-10-22T13:37:01;20.00;72.90
47368;DHT22;34646;47.964;7.982;2022-10-22T13:43:03;20.00;73.00
47368;DHT22;34646;47.964;7.982;2022-10-22T13:49:03;20.10;73.00
47368;DHT22;34646;47.964;7.982;2022-10-22T13:55:16;20.10;73.40
47368;DHT22;34646;47.964;7.982;2022-10-22T14:01:26;20.20;73.80
47368;DHT22;34646;47.964;7.982;2022-10-22T14:07:27;20.20;74.10
47368;DHT22;34646;47.964;7.982;2022-10-22T14:13:27;20.20;74.30
47368;DHT22;34646;47.964;7.982;2022-10-22T14:19:29;20.20;74.40
47368;DHT22;34646;47.964;7.982;2022-10-22T14:25:30;20.10;74.60
47368;DHT22;34646;47.964;7.982;2022-10-22T14:31:31;20.10;74.60
47368;DHT22;34646;47.964;7.982;2022-10-22T14:37:32;20.00;74.80
47368;DHT22;34646;47.964;7.982;2022-10-22T14:43:32;20.00;74.90
47368;DHT22;34646;47.964;7.982;2022-10-22T14:49:33;20.10;74.60
47368;DHT22;34646;47.964;7.982;2022-10-22T14:55:34;20.30;74.40
47368;DHT22;34646;47.964;7.982;2022-10-22T15:01:35;20.30;74.60
47368;DHT22;34646;47.964;7.982;2022-10-22T15:07:36;20.30;74.90
47368;DHT22;34646;47.964;7.982;2022-10-22T15:13:38;20.20;75.00
47368;DHT22;34646;47.964;7.982;2022-10-22T15:19:40;20.20;74.80
47368;DHT22;34646;47.964;7.982;2022-10-22T15:25:43;20.20;74.90
47368;DHT22;34646;47.964;7.982;2022-10-22T15:31:51;20.20;74.90
47368;DHT22;34646;47.964;7.982;2022-10-22T15:37:53;20.10;75.00
47368;DHT22;34646;47.964;7.982;2022-10-22T15:43:53;20.10;75.00
47368;DHT22;34646;47.964;7.982;2022-10-22T15:49:54;20.00;75.20
47368;DHT22;34646;47.964;7.982;2022-10-22T15:55:55;20.00;75.70
47368;DHT22;34646;47.964;7.982;2022-10-22T16:01:55;20.00;74.40
47368;DHT22;34646;47.964;7.982;2022-10-22T16:07:56;19.90;73.90
47368;DHT22;34646;47.964;7.982;2022-10-22T16:13:58;19.90;73.70
47368;DHT22;34646;47.964;7.982;2022-10-22T16:19:59;19.90;73.90
47368;DHT22;34646;47.964;7.982;2022-10-22T16:26:01;19.90;74.10
47368;DHT22;34646;47.964;7.982;2022-10-22T16:32:01;19.90;74.30
47368;DHT22;34646;47.964;7.982;2022-10-22T16:38:02;19.90;74.50
47368;DHT22;34646;47.964;7.982;2022-10-22T16:44:05;19.80;74.60
47368;DHT22;34646;47.964;7.982;2022-10-22T16:50:08;19.80;74.80
47368;DHT22;34646;47.964;7.982;2022-10-22T16:56:11;19.90;74.90
47368;DHT22;34646;47.964;7.982;2022-10-22T17:02:11;19.90;75.10
47368;DHT22;34646;47.964;7.982;2022-10-22T17:08:12;19.90;75.20
47368;DHT22;34646;47.964;7.982;2022-10-22T17:14:14;19.90;75.30
47368;DHT22;34646;47.964;7.982;2022-10-22T17:20:18;19.80;75.50
47368;DHT22;34646;47.964;7.982;2022-10-22T17:26:20;19.80;76.60
47368;DHT22;34646;47.964;7.982;2022-10-22T17:32:22;19.80;77.00
47368;DHT22;34646;47.964;7.982;2022-10-22T17:38:22;19.80;77.90
47368;DHT22;34646;47.964;7.982;2022-10-22T17:44:23;19.70;78.10
47368;DHT22;34646;47.964;7.982;2022-10-22T17:50:24;19.70;78.50
47368;DHT22;34646;47.964;7.982;2022-10-22T17:56:27;19.70;78.80
47368;DHT22;34646;47.964;7.982;2022-10-22T18:02:27;19.70;79.00
47368;DHT22;34646;47.964;7.982;2022-10-22T18:08:29;19.80;78.30
47368;DHT22;34646;47.964;7.982;2022-10-22T18:14:30;19.80;78.10
47368;DHT22;34646;47.964;7.982;2022-10-22T18:20:31;19.80;77.90
47368;DHT22;34646;47.964;7.982;2022-10-22T18:26:32;19.80;77.90
47368;DHT22;34646;47.964;7.982;2022-10-22T18:32:33;19.80;77.80
47368;DHT22;34646;47.964;7.982;2022-10-22T18:38:36;19.80;77.70
47368;DHT22;34646;47.964;7.982;2022-10-22T18:44:40;19.70;78.20
47368;DHT22;34646;47.964;7.982;2022-10-22T18:50:41;19.70;77.70
47368;DHT22;34646;47.964;7.982;2022-10-22T18:56:41;19.70;77.80
47368;DHT22;34646;47.964;7.982;2022-10-22T19:02:42;19.70;77.80
47368;DHT22;34646;47.964;7.982;2022-10-22T19:08:43;19.70;77.90
47368;DHT22;34646;47.964;7.982;2022-10-22T19:14:44;19.70;78.00
47368;DHT22;34646;47.964;7.982;2022-10-22T19:20:57;19.70;78.00
47368;DHT22;34646;47.964;7.982;2022-10-22T19:26:58;19.70;78.00
47368;DHT22;34646;47.964;7.982;2022-10-22T19:32:58;19.70;78.10
47368;DHT22;34646;47.964;7.982;2022-10-22T19:38:59;19.70;78.10
47368;DHT22;34646;47.964;7.982;2022-10-22T19:45:00;19.70;78.20
47368;DHT22;34646;47.964;7.982;2022-10-22T19:51:04;19.70;78.30
47368;DHT22;34646;47.964;7.982;2022-10-22T19:57:06;19.60;78.20
47368;DHT22;34646;47.964;7.982;2022-10-22T20:03:07;19.70;78.30
47368;DHT22;34646;47.964;7.982;2022-10-22T20:09:07;19.60;78.30
47368;DHT22;34646;47.964;7.982;2022-10-22T20:15:10;19.60;78.20
47368;DHT22;34646;47.964;7.982;2022-10-22T20:21:12;19.60;78.20
47368;DHT22;34646;47.964;7.982;2022-10-22T20:27:13;19.60;78.20
47368;DHT22;34646;47.964;7.982;2022-10-22T20:33:15;19.60;78.20
47368;DHT22;34646;47.964;7.982;2022-10-22T20:39:15;19.60;78.20
47368;DHT22;34646;47.964;7.982;2022-10-22T20:45:16;19.60;78.10
47368;DHT22;34646;47.964;7.982;2022-10-22T20:51:17;19.60;78.10
47368;DHT22;34646;47.964;7.982;2022-10-22T20:57:18;19.50;78.00
47368;DHT22;34646;47.964;7.982;2022-10-22T21:03:18;19.60;78.10
47368;DHT22;34646;47.964;7.982;2022-10-22T21:09:20;19.50;77.90
47368;DHT22;34646;47.964;7.982;2022-10-22T21:15:20;19.50;77.90
47368;DHT22;34646;47.964;7.982;2022-10-22T21:21:21;19.50;77.90
47368;DHT22;34646;47.964;7.982;2022-10-22T21:27:22;19.50;77.90
47368;DHT22;34646;47.964;7.982;2022-10-22T21:33:23;19.50;77.90
47368;DHT22;34646;47.964;7.982;2022-10-22T21:39:24;19.50;77.90
47368;DHT22;34646;47.964;7.982;2022-10-22T21:45:25;19.50;77.80
47368;DHT22;34646;47.964;7.982;2022-10-22T21:51:26;19.50;77.80
47368;DHT22;34646;47.964;7.982;2022-10-22T21:57:27;19.40;77.80
47368;DHT22;34646;47.964;7.982;2022-10-22T22:03:27;19.40;77.70
47368;DHT22;34646;47.964;7.982;2022-10-22T22:09:28;19.40;77.70
47368;DHT22;34646;47.964;7.982;2022-10-22T22:15:29;19.40;77.70
47368;DHT22;34646;47.964;7.982;2022-10-22T22:21:31;19.40;77.70
47368;DHT22;34646;47.964;7.982;2022-10-22T22:27:33;19.40;77.70
47368;DHT22;34646;47.964;7.982;2022-10-22T22:33:34;19.40;77.60
47368;DHT22;34646;47.964;7.982;2022-10-22T22:39:34;19.40;77.60
47368;DHT22;34646;47.964;7.982;2022-10-22T22:45:36;19.40;77.60
47368;DHT22;34646;47.964;7.982;2022-10-22T22:51:38;19.40;77.70
47368;DHT22;34646;47.964;7.982;2022-10-22T22:57:39;19.40;77.60
47368;DHT22;34646;47.964;7.982;2022-10-22T23:03:40;19.40;77.60
47368;DHT22;34646;47.964;7.982;2022-10-22T23:09:41;19.40;77.60
47368;DHT22;34646;47.964;7.982;2022-10-22T23:15:42;19.40;77.60
47368;DHT22;34646;47.964;7.982;2022-10-22T23:21:50;19.30;77.50
47368;DHT22;34646;47.964;7.982;2022-10-22T23:27:51;19.40;77.60
47368;DHT22;34646;47.964;7.982;2022-10-22T23:33:52;19.30;77.60
47368;DHT22;34646;47.964;7.982;2022-10-22T23:39:53;19.30;77.60
47368;DHT22;34646;47.964;7.982;2022-10-22T23:45:54;19.30;77.60
47368;DHT22;34646;47.964;7.982;2022-10-22T23:51:54;19.30;77.60
47368;DHT22;34646;47.964;7.982;2022-10-22T23:57:55;19.30;77.60
